sensor_id;sensor_type;location;lat;lon;timestamp;temperature;humidity
46438;DHT22;32137;48.728;9.142;2024-02-21T00:01:37;6.50;97.70
46438;DHT22;32137;48.728;9.142;2024-02-21T00:04:02;6.40;99.90
46438;DHT22;32137;48.728;9.142;2024-02-21T00:06:28;6.40;99.90
46438;DHT22;32137;48.728;9.142;2024-02-21T00:08:53;6.30;99.90
46438;DHT22;32137;48.728;9.142;2024-02-21T00:11:19;6.30;99.90
46438;DHT22;32137;48.728;9.142;2024-02-21T00:13:44;6.30;99.90
46438;DHT22;32137;48.728;9.142;2024-02-21T00:16:09;6.30;99.90
46438;DHT22;32137;48.728;9.142;2024-02-21T00:18:36;6.30;99.90
46438;DHT22;32137;48.728;9.142;2024-02-21T00:21:02;6.30;99.90
46438;DHT22;32137;48.728;9.142;2024-02-21T00:23:28;6.30;99.90
46438;DHT22;32137;48.728;9.142;2024-02-21T00:25:54;6.30;99.90
46438;DHT22;32137;48.728;9.142;2024-02-21T00:28:19;6.30;99.90
46438;DHT22;32137;48.728;9.142;2024-02-21T00:30:45;6.40;99.90
46438;DHT22;32137;48.728;9.142;2024-02-21T00:33:10;6.40;99.90
46438;DHT22;32137;48.728;9.142;2024-02-21T00:35:36;6.40;99.90
46438;DHT22;32137;48.728;9.142;2024-02-21T00:38:01;6.40;99.90
46438;DHT22;32137;48.728;9.142;2024-02-21T00:40:28;6.40;99.90
46438;DHT22;32137;48.728;9.142;2024-02-21T00:42:53;6.40;99.90
46438;DHT22;32137;48.728;9.142;2024-02-21T00:45:19;6.40;93.90
46438;DHT22;32137;48.728;9.142;2024-02-21T00:47:44;6.40;99.30
46438;DHT22;32137;48.728;9.142;2024-02-21T00:50:10;6.40;93.50
46438;DHT22;32137;48.728;9.142;2024-02-21T00:52:35;6.40;94.80
46438;DHT22;32137;48.728;9.142;2024-02-21T00:55:01;6.50;96.30
46438;DHT22;32137;48.728;9.142;2024-02-21T00:57:26;6.50;64.30
46438;DHT22;32137;48.728;9.142;2024-02-21T00:59:52;6.50;73.70
46438;DHT22;32137;48.728;9.142;2024-02-21T01:02:17;6.50;60.90
46438;DHT22;32137;48.728;9.142;2024-02-21T01:04:43;6.50;60.60
46438;DHT22;32137;48.728;9.142;2024-02-21T01:07:08;6.50;62.80
46438;DHT22;32137;48.728;9.142;2024-02-21T01:09:33;6.40;58.20
46438;DHT22;32137;48.728;9.142;2024-02-21T01:11:59;6.40;77.60
46438;DHT22;32137;48.728;9.142;2024-02-21T01:14:25;6.40;77.20
46438;DHT22;32137;48.728;9.142;2024-02-21T01:16:50;6.40;83.50
46438;DHT22;32137;48.728;9.142;2024-02-21T01:19:15;6.30;90.10
46438;DHT22;32137;48.728;9.142;2024-02-21T01:21:41;6.40;93.60
46438;DHT22;32137;48.728;9.142;2024-02-21T01:24:06;6.30;87.00
46438;DHT22;32137;48.728;9.142;2024-02-21T01:26:32;6.30;83.70
46438;DHT22;32137;48.728;9.142;2024-02-21T01:28:57;6.30;85.80
46438;DHT22;32137;48.728;9.142;2024-02-21T01:31:23;6.30;91.10
46438;DHT22;32137;48.728;9.142;2024-02-21T01:33:48;6.20;84.00
46438;DHT22;32137;48.728;9.142;2024-02-21T01:36:14;6.20;87.50
46438;DHT22;32137;48.728;9.142;2024-02-21T01:38:39;6.20;88.20
46438;DHT22;32137;48.728;9.142;2024-02-21T01:41:05;6.20;88.50
46438;DHT22;32137;48.728;9.142;2024-02-21T01:43:30;6.20;80.30
46438;DHT22;32137;48.728;9.142;2024-02-21T01:45:56;6.20;82.20
46438;DHT22;32137;48.728;9.142;2024-02-21T01:48:22;6.20;85.70
46438;DHT22;32137;48.728;9.142;2024-02-21T01:50:48;6.10;77.30
46438;DHT22;32137;48.728;9.142;2024-02-21T01:53:14;6.10;77.70
46438;DHT22;32137;48.728;9.142;2024-02-21T01:55:47;6.10;72.40
46438;DHT22;32137;48.728;9.142;2024-02-21T01:58:13;6.10;78.30
46438;DHT22;32137;48.728;9.142;2024-02-21T02:00:39;6.10;76.20
46438;DHT22;32137;48.728;9.142;2024-02-21T02:03:06;6.10;76.00
46438;DHT22;32137;48.728;9.142;2024-02-21T02:05:32;6.20;70.70
46438;DHT22;32137;48.728;9.142;2024-02-21T02:07:57;6.10;75.80
46438;DHT22;32137;48.728;9.142;2024-02-21T02:10:23;6.10;79.30
46438;DHT22;32137;48.728;9.142;2024-02-21T02:12:48;6.10;82.30
46438;DHT22;32137;48.728;9.142;2024-02-21T02:15:14;6.10;78.90
46438;DHT22;32137;48.728;9.142;2024-02-21T02:17:39;6.10;75.00
46438;DHT22;32137;48.728;9.142;2024-02-21T02:20:05;6.10;68.10
46438;DHT22;32137;48.728;9.142;2024-02-21T02:22:31;6.10;70.60
46438;DHT22;32137;48.728;9.142;2024-02-21T02:24:57;6.10;65.70
46438;DHT22;32137;48.728;9.142;2024-02-21T02:27:23;6.10;68.40
46438;DHT22;32137;48.728;9.142;2024-02-21T02:29:49;6.10;61.10
46438;DHT22;32137;48.728;9.142;2024-02-21T02:32:15;6.10;61.40
46438;DHT22;32137;48.728;9.142;2024-02-21T02:34:40;6.10;48.00
46438;DHT22;32137;48.728;9.142;2024-02-21T02:37:06;6.10;48.40
46438;DHT22;32137;48.728;9.142;2024-02-21T02:39:31;6.10;46.60
46438;DHT22;32137;48.728;9.142;2024-02-21T02:41:57;6.20;60.70
46438;DHT22;32137;48.728;9.142;2024-02-21T02:44:22;6.20;40.80
46438;DHT22;32137;48.728;9.142;2024-02-21T02:46:47;6.20;35.30
46438;DHT22;32137;48.728;9.142;2024-02-21T02:49:13;6.20;39.90
46438;DHT22;32137;48.728;9.142;2024-02-21T02:51:42;6.20;46.20
46438;DHT22;32137;48.728;9.142;2024-02-21T02:54:08;6.20;37.30
46438;DHT22;32137;48.728;9.142;2024-02-21T02:56:33;6.20;41.70
46438;DHT22;32137;48.728;9.142;2024-02-21T02:58:59;6.30;52.50
46438;DHT22;32137;48.728;9.142;2024-02-21T03:01:24;6.20;99.90
46438;DHT22;32137;48.728;9.142;2024-02-21T03:03:50;6.20;99.90
46438;DHT22;32137;48.728;9.142;2024-02-21T03:06:15;6.20;99.90
46438;DHT22;32137;48.728;9.142;2024-02-21T03:08:41;6.20;99.90
46438;DHT22;32137;48.728;9.142;2024-02-21T03:11:08;6.20;99.90
46438;DHT22;32137;48.728;9.142;2024-02-21T03:13:34;6.20;99.90
46438;DHT22;32137;48.728;9.142;2024-02-21T03:15:59;6.20;99.90
46438;DHT22;32137;48.728;9.142;2024-02-21T03:18:24;6.10;99.90
46438;DHT22;32137;48.728;9.142;2024-02-21T03:20:50;6.10;99.90
46438;DHT22;32137;48.728;9.142;2024-02-21T03:23:15;6.10;99.90
46438;DHT22;32137;48.728;9.142;2024-02-21T03:25:41;6.00;99.90
46438;DHT22;32137;48.728;9.142;2024-02-21T03:28:06;6.10;99.90
46438;DHT22;32137;48.728;9.142;2024-02-21T03:30:32;6.10;99.90
46438;DHT22;32137;48.728;9.142;2024-02-21T03:32:59;6.10;99.90
46438;DHT22;32137;48.728;9.142;2024-02-21T03:35:24;6.00;99.90
46438;DHT22;32137;48.728;9.142;2024-02-21T03:37:51;6.00;99.90
46438;DHT22;32137;48.728;9.142;2024-02-21T03:40:17;6.00;99.90
46438;DHT22;32137;48.728;9.142;2024-02-21T03:42:42;6.00;99.90
46438;DHT22;32137;48.728;9.142;2024-02-21T03:45:08;6.00;99.90
46438;DHT22;32137;48.728;9.142;2024-02-21T03:47:34;6.10;99.90
46438;DHT22;32137;48.728;9.142;2024-02-21T03:49:59;6.00;99.90
46438;DHT22;32137;48.728;9.142;2024-02-21T03:52:25;6.10;99.90
46438;DHT22;32137;48.728;9.142;2024-02-21T03:54:51;6.00;99.90
46438;DHT22;32137;48.728;9.142;2024-02-21T03:57:16;6.10;99.90
46438;DHT22;32137;48.728;9.142;2024-02-21T03:59:42;6.00;99.90
46438;DHT22;32137;48.728;9.142;2024-02-21T04:02:08;6.10;99.90
46438;DHT22;32137;48.728;9.142;2024-02-21T04:04:34;6.10;99.90
46438;DHT22;32137;48.728;9.142;2024-02-21T04:07:00;6.00;99.90
46438;DHT22;32137;48.728;9.142;2024-02-21T04:09:25;6.00;99.90
46438;DHT22;32137;48.728;9.142;2024-02-21T04:11:51;6.00;99.90
46438;DHT22;32137;48.728;9.142;2024-02-21T04:14:17;6.00;99.90
46438;DHT22;32137;48.728;9.142;2024-02-21T04:16:42;5.90;99.90
46438;DHT22;32137;48.728;9.142;2024-02-21T04:19:08;5.90;99.90
46438;DHT22;32137;48.728;9.142;2024-02-21T04:21:33;5.80;90.80
46438;DHT22;32137;48.728;9.142;2024-02-21T04:23:59;5.80;87.90
46438;DHT22;32137;48.728;9.142;2024-02-21T04:26:24;5.80;94.00
46438;DHT22;32137;48.728;9.142;2024-02-21T04:28:50;5.80;94.60
46438;DHT22;32137;48.728;9.142;2024-02-21T04:31:15;5.80;86.30
46438;DHT22;32137;48.728;9.142;2024-02-21T04:33:41;5.80;90.10
46438;DHT22;32137;48.728;9.142;2024-02-21T04:36:06;5.80;99.90
46438;DHT22;32137;48.728;9.142;2024-02-21T04:38:32;5.80;64.00
46438;DHT22;32137;48.728;9.142;2024-02-21T04:40:57;5.80;91.50
46438;DHT22;32137;48.728;9.142;2024-02-21T04:43:24;5.70;62.90
46438;DHT22;32137;48.728;9.142;2024-02-21T04:45:50;5.70;50.30
46438;DHT22;32137;48.728;9.142;2024-02-21T04:48:15;5.70;47.20
46438;DHT22;32137;48.728;9.142;2024-02-21T04:50:41;5.80;52.20
46438;DHT22;32137;48.728;9.142;2024-02-21T04:53:06;5.80;53.80
46438;DHT22;32137;48.728;9.142;2024-02-21T04:55:32;5.70;22.20
46438;DHT22;32137;48.728;9.142;2024-02-21T04:57:57;5.70;29.30
46438;DHT22;32137;48.728;9.142;2024-02-21T05:00:23;5.70;69.20
46438;DHT22;32137;48.728;9.142;2024-02-21T05:02:48;5.60;58.10
46438;DHT22;32137;48.728;9.142;2024-02-21T05:05:14;5.60;27.90
46438;DHT22;32137;48.728;9.142;2024-02-21T05:07:40;5.60;66.70
46438;DHT22;32137;48.728;9.142;2024-02-21T05:10:07;5.50;17.00
46438;DHT22;32137;48.728;9.142;2024-02-21T05:12:32;5.50;27.10
46438;DHT22;32137;48.728;9.142;2024-02-21T05:14:58;5.50;73.30
46438;DHT22;32137;48.728;9.142;2024-02-21T05:17:23;5.50;65.00
46438;DHT22;32137;48.728;9.142;2024-02-21T05:19:48;5.40;36.80
46438;DHT22;32137;48.728;9.142;2024-02-21T05:22:14;5.40;18.20
46438;DHT22;32137;48.728;9.142;2024-02-21T05:24:39;5.40;29.10
46438;DHT22;32137;48.728;9.142;2024-02-21T05:27:05;5.40;43.40
46438;DHT22;32137;48.728;9.142;2024-02-21T05:29:31;5.40;51.00
46438;DHT22;32137;48.728;9.142;2024-02-21T05:31:56;5.40;55.20
46438;DHT22;32137;48.728;9.142;2024-02-21T05:34:22;5.40;35.10
46438;DHT22;32137;48.728;9.142;2024-02-21T05:36:48;5.40;34.50
46438;DHT22;32137;48.728;9.142;2024-02-21T05:39:15;5.40;22.70
46438;DHT22;32137;48.728;9.142;2024-02-21T05:41:40;5.40;20.50
46438;DHT22;32137;48.728;9.142;2024-02-21T05:44:06;5.40;26.90
46438;DHT22;32137;48.728;9.142;2024-02-21T05:46:31;5.40;12.50
46438;DHT22;32137;48.728;9.142;2024-02-21T05:48:57;5.40;12.10
46438;DHT22;32137;48.728;9.142;2024-02-21T05:51:22;5.40;27.90
46438;DHT22;32137;48.728;9.142;2024-02-21T05:53:48;5.40;11.60
46438;DHT22;32137;48.728;9.142;2024-02-21T05:56:13;5.30;15.60
46438;DHT22;32137;48.728;9.142;2024-02-21T05:58:39;5.30;13.70
46438;DHT22;32137;48.728;9.142;2024-02-21T06:01:05;5.30;15.00
46438;DHT22;32137;48.728;9.142;2024-02-21T06:03:32;5.30;16.80
46438;DHT22;32137;48.728;9.142;2024-02-21T06:05:57;5.30;15.40
46438;DHT22;32137;48.728;9.142;2024-02-21T06:08:23;5.30;16.10
46438;DHT22;32137;48.728;9.142;2024-02-21T06:10:48;5.30;4.40
46438;DHT22;32137;48.728;9.142;2024-02-21T06:13:14;5.30;3.70
46438;DHT22;32137;48.728;9.142;2024-02-21T06:15:40;5.20;4.10
46438;DHT22;32137;48.728;9.142;2024-02-21T06:18:05;5.20;9.90
46438;DHT22;32137;48.728;9.142;2024-02-21T06:20:31;5.20;23.20
46438;DHT22;32137;48.728;9.142;2024-02-21T06:22:56;5.10;36.40
46438;DHT22;32137;48.728;9.142;2024-02-21T06:25:22;5.10;39.70
46438;DHT22;32137;48.728;9.142;2024-02-21T06:27:47;5.10;41.50
46438;DHT22;32137;48.728;9.142;2024-02-21T06:30:13;5.10;47.70
46438;DHT22;32137;48.728;9.142;2024-02-21T06:32:38;5.00;43.80
46438;DHT22;32137;48.728;9.142;2024-02-21T06:35:04;5.00;44.40
46438;DHT22;32137;48.728;9.142;2024-02-21T06:37:30;5.00;40.40
46438;DHT22;32137;48.728;9.142;2024-02-21T06:39:57;5.00;34.70
46438;DHT22;32137;48.728;9.142;2024-02-21T06:42:24;5.00;28.20
46438;DHT22;32137;48.728;9.142;2024-02-21T06:44:49;5.00;20.70
46438;DHT22;32137;48.728;9.142;2024-02-21T06:47:15;5.00;12.90
46438;DHT22;32137;48.728;9.142;2024-02-21T06:49:40;5.00;18.20
46438;DHT22;32137;48.728;9.142;2024-02-21T06:52:07;5.00;14.60
46438;DHT22;32137;48.728;9.142;2024-02-21T06:54:32;5.10;14.70
46438;DHT22;32137;48.728;9.142;2024-02-21T06:56:58;5.10;15.00
46438;DHT22;32137;48.728;9.142;2024-02-21T06:59:23;5.10;12.60
46438;DHT22;32137;48.728;9.142;2024-02-21T07:01:49;5.10;12.30
46438;DHT22;32137;48.728;9.142;2024-02-21T07:04:14;5.10;12.90
46438;DHT22;32137;48.728;9.142;2024-02-21T07:06:40;5.10;8.40
46438;DHT22;32137;48.728;9.142;2024-02-21T07:09:06;5.20;1.20
46438;DHT22;32137;48.728;9.142;2024-02-21T07:11:31;5.20;1.00
46438;DHT22;32137;48.728;9.142;2024-02-21T07:13:57;5.20;1.00
46438;DHT22;32137;48.728;9.142;2024-02-21T07:16:22;5.20;1.00
46438;DHT22;32137;48.728;9.142;2024-02-21T07:18:47;5.20;1.00
46438;DHT22;32137;48.728;9.142;2024-02-21T07:21:13;5.30;1.00
46438;DHT22;32137;48.728;9.142;2024-02-21T07:23:41;5.30;1.00
46438;DHT22;32137;48.728;9.142;2024-02-21T07:26:10;5.30;1.00
46438;DHT22;32137;48.728;9.142;2024-02-21T07:28:35;5.30;1.00
46438;DHT22;32137;48.728;9.142;2024-02-21T07:31:01;5.40;1.00
46438;DHT22;32137;48.728;9.142;2024-02-21T07:33:26;5.40;1.00
46438;DHT22;32137;48.728;9.142;2024-02-21T07:35:52;5.50;1.00
46438;DHT22;32137;48.728;9.142;2024-02-21T07:38:17;5.50;1.00
46438;DHT22;32137;48.728;9.142;2024-02-21T07:40:46;5.60;1.00
46438;DHT22;32137;48.728;9.142;2024-02-21T07:43:12;5.60;1.00
46438;DHT22;32137;48.728;9.142;2024-02-21T07:45:37;5.70;1.00
46438;DHT22;32137;48.728;9.142;2024-02-21T07:48:05;5.70;1.00
46438;DHT22;32137;48.728;9.142;2024-02-21T07:50:30;5.70;1.00
46438;DHT22;32137;48.728;9.142;2024-02-21T07:52:56;5.70;1.00
46438;DHT22;32137;48.728;9.142;2024-02-21T07:55:21;5.80;1.00
46438;DHT22;32137;48.728;9.142;2024-02-21T07:57:47;5.80;1.00
46438;DHT22;32137;48.728;9.142;2024-02-21T08:00:12;5.80;1.00
46438;DHT22;32137;48.728;9.142;2024-02-21T08:02:45;5.90;1.00
46438;DHT22;32137;48.728;9.142;2024-02-21T08:05:11;6.00;1.00
46438;DHT22;32137;48.728;9.142;2024-02-21T08:07:37;6.00;1.00
46438;DHT22;32137;48.728;9.142;2024-02-21T08:10:03;6.10;1.00
46438;DHT22;32137;48.728;9.142;2024-02-21T08:12:29;6.10;1.00
46438;DHT22;32137;48.728;9.142;2024-02-21T08:14:54;6.20;1.00
46438;DHT22;32137;48.728;9.142;2024-02-21T08:17:20;6.20;1.00
46438;DHT22;32137;48.728;9.142;2024-02-21T08:19:45;6.20;1.00
46438;DHT22;32137;48.728;9.142;2024-02-21T08:22:10;6.30;1.00
46438;DHT22;32137;48.728;9.142;2024-02-21T08:24:36;6.30;1.00
46438;DHT22;32137;48.728;9.142;2024-02-21T08:27:01;6.50;98.80
46438;DHT22;32137;48.728;9.142;2024-02-21T08:29:27;6.70;9.90
46438;DHT22;32137;48.728;9.142;2024-02-21T08:31:53;6.70;1.00
46438;DHT22;32137;48.728;9.142;2024-02-21T08:34:18;6.70;1.00
46438;DHT22;32137;48.728;9.142;2024-02-21T08:36:44;6.70;1.00
46438;DHT22;32137;48.728;9.142;2024-02-21T08:39:09;6.80;1.00
46438;DHT22;32137;48.728;9.142;2024-02-21T08:41:35;6.80;1.00
46438;DHT22;32137;48.728;9.142;2024-02-21T08:44:00;6.80;1.00
46438;DHT22;32137;48.728;9.142;2024-02-21T08:46:26;6.90;1.00
46438;DHT22;32137;48.728;9.142;2024-02-21T08:48:52;7.00;1.00
46438;DHT22;32137;48.728;9.142;2024-02-21T08:51:18;7.00;1.00
46438;DHT22;32137;48.728;9.142;2024-02-21T08:53:43;7.10;1.00
46438;DHT22;32137;48.728;9.142;2024-02-21T08:56:09;7.10;1.00
46438;DHT22;32137;48.728;9.142;2024-02-21T08:58:35;7.20;1.00
46438;DHT22;32137;48.728;9.142;2024-02-21T09:01:02;7.20;99.90
46438;DHT22;32137;48.728;9.142;2024-02-21T09:03:30;7.20;99.90
46438;DHT22;32137;48.728;9.142;2024-02-21T09:05:55;7.30;99.90
46438;DHT22;32137;48.728;9.142;2024-02-21T09:08:21;7.30;99.90
46438;DHT22;32137;48.728;9.142;2024-02-21T09:10:47;7.40;99.90
46438;DHT22;32137;48.728;9.142;2024-02-21T09:13:13;7.40;99.90
46438;DHT22;32137;48.728;9.142;2024-02-21T09:15:38;7.40;99.90
46438;DHT22;32137;48.728;9.142;2024-02-21T09:18:03;7.50;99.90
46438;DHT22;32137;48.728;9.142;2024-02-21T09:20:29;7.50;99.90
46438;DHT22;32137;48.728;9.142;2024-02-21T09:22:54;7.50;99.90
46438;DHT22;32137;48.728;9.142;2024-02-21T09:25:20;7.50;99.90
46438;DHT22;32137;48.728;9.142;2024-02-21T09:27:45;7.50;99.90
46438;DHT22;32137;48.728;9.142;2024-02-21T09:30:11;7.50;99.90
46438;DHT22;32137;48.728;9.142;2024-02-21T09:32:37;7.60;99.90
46438;DHT22;32137;48.728;9.142;2024-02-21T09:35:03;7.60;99.90
46438;DHT22;32137;48.728;9.142;2024-02-21T09:37:28;7.60;99.90
46438;DHT22;32137;48.728;9.142;2024-02-21T09:39:54;7.70;99.90
46438;DHT22;32137;48.728;9.142;2024-02-21T09:42:22;7.70;99.90
46438;DHT22;32137;48.728;9.142;2024-02-21T09:44:51;7.80;99.90
46438;DHT22;32137;48.728;9.142;2024-02-21T09:47:22;7.80;99.90
46438;DHT22;32137;48.728;9.142;2024-02-21T09:49:49;7.80;99.90
46438;DHT22;32137;48.728;9.142;2024-02-21T09:52:15;7.80;99.90
46438;DHT22;32137;48.728;9.142;2024-02-21T09:54:41;7.80;99.90
46438;DHT22;32137;48.728;9.142;2024-02-21T09:57:10;7.90;99.90
46438;DHT22;32137;48.728;9.142;2024-02-21T09:59:36;7.90;99.90
46438;DHT22;32137;48.728;9.142;2024-02-21T10:02:02;8.00;99.90
46438;DHT22;32137;48.728;9.142;2024-02-21T10:04:28;8.10;99.90
46438;DHT22;32137;48.728;9.142;2024-02-21T10:06:54;8.10;99.90
46438;DHT22;32137;48.728;9.142;2024-02-21T10:09:20;8.20;99.90
46438;DHT22;32137;48.728;9.142;2024-02-21T10:11:46;8.30;99.90
46438;DHT22;32137;48.728;9.142;2024-02-21T10:14:11;8.40;99.90
46438;DHT22;32137;48.728;9.142;2024-02-21T10:16:37;8.50;43.10
46438;DHT22;32137;48.728;9.142;2024-02-21T10:19:02;8.50;30.00
46438;DHT22;32137;48.728;9.142;2024-02-21T10:21:28;8.60;1.00
46438;DHT22;32137;48.728;9.142;2024-02-21T10:23:54;8.60;2.90
46438;DHT22;32137;48.728;9.142;2024-02-21T10:26:20;8.70;14.20
46438;DHT22;32137;48.728;9.142;2024-02-21T10:28:46;8.80;16.20
46438;DHT22;32137;48.728;9.142;2024-02-21T10:31:25;8.90;1.00
46438;DHT22;32137;48.728;9.142;2024-02-21T10:33:54;9.00;1.00
46438;DHT22;32137;48.728;9.142;2024-02-21T10:36:20;9.10;1.00
46438;DHT22;32137;48.728;9.142;2024-02-21T10:38:45;9.20;1.00
46438;DHT22;32137;48.728;9.142;2024-02-21T10:41:12;9.30;1.00
46438;DHT22;32137;48.728;9.142;2024-02-21T10:43:39;9.40;1.00
46438;DHT22;32137;48.728;9.142;2024-02-21T10:46:08;9.50;1.00
46438;DHT22;32137;48.728;9.142;2024-02-21T10:48:46;9.60;1.00
46438;DHT22;32137;48.728;9.142;2024-02-21T10:53:45;9.70;1.00
46438;DHT22;32137;48.728;9.142;2024-02-21T10:58:40;9.90;1.00
46438;DHT22;32137;48.728;9.142;2024-02-21T11:01:06;9.90;1.00
46438;DHT22;32137;48.728;9.142;2024-02-21T11:03:33;10.00;1.00
46438;DHT22;32137;48.728;9.142;2024-02-21T11:05:58;10.00;1.00
46438;DHT22;32137;48.728;9.142;2024-02-21T11:08:24;10.10;1.00
46438;DHT22;32137;48.728;9.142;2024-02-21T11:10:56;10.10;1.00
46438;DHT22;32137;48.728;9.142;2024-02-21T11:13:29;10.10;1.00
46438;DHT22;32137;48.728;9.142;2024-02-21T11:16:05;10.20;1.00
46438;DHT22;32137;48.728;9.142;2024-02-21T11:18:30;10.20;99.90
46438;DHT22;32137;48.728;9.142;2024-02-21T11:20:56;10.30;99.90
46438;DHT22;32137;48.728;9.142;2024-02-21T11:23:25;10.30;99.90
46438;DHT22;32137;48.728;9.142;2024-02-21T11:25:51;10.30;1.00
46438;DHT22;32137;48.728;9.142;2024-02-21T11:28:16;10.50;99.90
46438;DHT22;32137;48.728;9.142;2024-02-21T11:30:50;10.60;99.90
46438;DHT22;32137;48.728;9.142;2024-02-21T11:33:16;10.60;99.90
46438;DHT22;32137;48.728;9.142;2024-02-21T11:35:42;10.60;99.90
46438;DHT22;32137;48.728;9.142;2024-02-21T11:38:11;10.70;99.90
46438;DHT22;32137;48.728;9.142;2024-02-21T11:40:40;10.80;99.90
46438;DHT22;32137;48.728;9.142;2024-02-21T11:43:06;10.80;99.90
46438;DHT22;32137;48.728;9.142;2024-02-21T11:45:32;10.80;99.90
46438;DHT22;32137;48.728;9.142;2024-02-21T11:48:00;10.80;99.90
46438;DHT22;32137;48.728;9.142;2024-02-21T11:50:28;10.90;99.90
46438;DHT22;32137;48.728;9.142;2024-02-21T11:52:54;10.90;99.90
46438;DHT22;32137;48.728;9.142;2024-02-21T11:55:20;10.90;99.90
46438;DHT22;32137;48.728;9.142;2024-02-21T11:57:47;10.90;99.90
46438;DHT22;32137;48.728;9.142;2024-02-21T12:00:13;10.90;99.90
46438;DHT22;32137;48.728;9.142;2024-02-21T12:02:39;10.90;99.90
46438;DHT22;32137;48.728;9.142;2024-02-21T12:05:05;11.00;99.90
46438;DHT22;32137;48.728;9.142;2024-02-21T12:07:31;11.00;99.90
46438;DHT22;32137;48.728;9.142;2024-02-21T12:09:58;11.10;99.90
46438;DHT22;32137;48.728;9.142;2024-02-21T12:12:24;11.10;95.80
46438;DHT22;32137;48.728;9.142;2024-02-21T12:14:54;11.20;99.90
46438;DHT22;32137;48.728;9.142;2024-02-21T12:17:20;11.20;85.30
46438;DHT22;32137;48.728;9.142;2024-02-21T12:19:46;11.40;44.20
46438;DHT22;32137;48.728;9.142;2024-02-21T12:22:16;11.50;32.60
46438;DHT22;32137;48.728;9.142;2024-02-21T12:24:41;11.60;1.00
46438;DHT22;32137;48.728;9.142;2024-02-21T12:27:12;11.70;1.00
46438;DHT22;32137;48.728;9.142;2024-02-21T12:29:37;11.70;1.00
46438;DHT22;32137;48.728;9.142;2024-02-21T12:32:03;11.80;1.00
46438;DHT22;32137;48.728;9.142;2024-02-21T12:34:29;11.90;1.00
46438;DHT22;32137;48.728;9.142;2024-02-21T12:36:58;12.00;1.00
46438;DHT22;32137;48.728;9.142;2024-02-21T12:39:23;12.00;1.00
46438;DHT22;32137;48.728;9.142;2024-02-21T12:41:48;12.10;1.00
46438;DHT22;32137;48.728;9.142;2024-02-21T12:44:14;12.20;1.00
46438;DHT22;32137;48.728;9.142;2024-02-21T12:46:41;12.20;1.00
46438;DHT22;32137;48.728;9.142;2024-02-21T12:49:07;12.30;1.00
46438;DHT22;32137;48.728;9.142;2024-02-21T12:51:33;12.30;1.00
46438;DHT22;32137;48.728;9.142;2024-02-21T12:53:59;12.40;99.90
46438;DHT22;32137;48.728;9.142;2024-02-21T12:56:25;12.30;99.90
46438;DHT22;32137;48.728;9.142;2024-02-21T12:58:52;12.30;99.90
46438;DHT22;32137;48.728;9.142;2024-02-21T13:01:18;12.30;99.90
46438;DHT22;32137;48.728;9.142;2024-02-21T13:03:43;12.30;99.90
46438;DHT22;32137;48.728;9.142;2024-02-21T13:06:09;12.30;99.90
46438;DHT22;32137;48.728;9.142;2024-02-21T13:08:37;12.20;99.90
46438;DHT22;32137;48.728;9.142;2024-02-21T13:11:03;12.30;99.90
46438;DHT22;32137;48.728;9.142;2024-02-21T13:13:28;12.30;99.90
46438;DHT22;32137;48.728;9.142;2024-02-21T13:15:54;12.30;99.90
46438;DHT22;32137;48.728;9.142;2024-02-21T13:18:19;12.30;99.90
46438;DHT22;32137;48.728;9.142;2024-02-21T13:20:45;12.30;99.90
46438;DHT22;32137;48.728;9.142;2024-02-21T13:23:10;12.40;99.90
46438;DHT22;32137;48.728;9.142;2024-02-21T13:25:36;12.40;99.90
46438;DHT22;32137;48.728;9.142;2024-02-21T13:28:01;12.40;99.90
46438;DHT22;32137;48.728;9.142;2024-02-21T13:30:28;12.40;99.90
46438;DHT22;32137;48.728;9.142;2024-02-21T13:32:54;12.50;99.90
46438;DHT22;32137;48.728;9.142;2024-02-21T13:35:22;12.50;99.90
46438;DHT22;32137;48.728;9.142;2024-02-21T13:37:48;12.60;99.90
46438;DHT22;32137;48.728;9.142;2024-02-21T13:40:14;12.70;99.90
46438;DHT22;32137;48.728;9.142;2024-02-21T13:42:39;12.80;99.90
46438;DHT22;32137;48.728;9.142;2024-02-21T13:45:05;12.80;99.90
46438;DHT22;32137;48.728;9.142;2024-02-21T13:47:31;12.80;99.90
46438;DHT22;32137;48.728;9.142;2024-02-21T13:49:57;12.70;99.90
46438;DHT22;32137;48.728;9.142;2024-02-21T13:52:23;12.70;99.90
46438;DHT22;32137;48.728;9.142;2024-02-21T13:54:51;12.60;99.90
46438;DHT22;32137;48.728;9.142;2024-02-21T13:57:17;12.50;99.90
46438;DHT22;32137;48.728;9.142;2024-02-21T13:59:43;12.50;99.90
46438;DHT22;32137;48.728;9.142;2024-02-21T14:02:08;12.50;99.90
46438;DHT22;32137;48.728;9.142;2024-02-21T14:04:34;12.50;99.90
46438;DHT22;32137;48.728;9.142;2024-02-21T14:06:59;12.40;99.90
46438;DHT22;32137;48.728;9.142;2024-02-21T14:09:26;12.40;99.90
46438;DHT22;32137;48.728;9.142;2024-02-21T14:11:51;12.40;99.90
46438;DHT22;32137;48.728;9.142;2024-02-21T14:14:17;12.30;99.90
46438;DHT22;32137;48.728;9.142;2024-02-21T14:16:42;12.30;99.90
46438;DHT22;32137;48.728;9.142;2024-02-21T14:19:08;12.30;99.90
46438;DHT22;32137;48.728;9.142;2024-02-21T14:21:34;12.20;99.90
46438;DHT22;32137;48.728;9.142;2024-02-21T14:24:03;12.20;99.90
46438;DHT22;32137;48.728;9.142;2024-02-21T14:26:28;12.20;99.90
46438;DHT22;32137;48.728;9.142;2024-02-21T14:28:55;12.10;99.90
46438;DHT22;32137;48.728;9.142;2024-02-21T14:31:22;12.10;99.90
46438;DHT22;32137;48.728;9.142;2024-02-21T14:33:47;12.10;99.90
46438;DHT22;32137;48.728;9.142;2024-02-21T14:36:13;12.00;99.90
46438;DHT22;32137;48.728;9.142;2024-02-21T14:38:40;12.10;99.90
46438;DHT22;32137;48.728;9.142;2024-02-21T14:41:06;12.10;99.90
46438;DHT22;32137;48.728;9.142;2024-02-21T14:43:32;12.10;99.90
46438;DHT22;32137;48.728;9.142;2024-02-21T14:45:57;12.10;99.90
46438;DHT22;32137;48.728;9.142;2024-02-21T14:48:23;12.10;99.90
46438;DHT22;32137;48.728;9.142;2024-02-21T14:50:48;12.10;99.90
46438;DHT22;32137;48.728;9.142;2024-02-21T14:53:14;12.00;99.90
46438;DHT22;32137;48.728;9.142;2024-02-21T14:55:40;12.00;99.90
46438;DHT22;32137;48.728;9.142;2024-02-21T14:58:07;11.90;99.90
46438;DHT22;32137;48.728;9.142;2024-02-21T15:00:33;11.90;99.90
46438;DHT22;32137;48.728;9.142;2024-02-21T15:02:58;11.80;99.90
46438;DHT22;32137;48.728;9.142;2024-02-21T15:05:24;11.80;99.90
46438;DHT22;32137;48.728;9.142;2024-02-21T15:07:50;11.80;99.90
46438;DHT22;32137;48.728;9.142;2024-02-21T15:10:15;11.70;99.90
46438;DHT22;32137;48.728;9.142;2024-02-21T15:12:43;11.70;99.90
46438;DHT22;32137;48.728;9.142;2024-02-21T15:15:09;11.70;99.90
46438;DHT22;32137;48.728;9.142;2024-02-21T15:17:35;11.60;99.90
46438;DHT22;32137;48.728;9.142;2024-02-21T15:20:00;11.60;99.90
46438;DHT22;32137;48.728;9.142;2024-02-21T15:22:26;11.60;99.90
46438;DHT22;32137;48.728;9.142;2024-02-21T15:24:52;11.60;99.90
46438;DHT22;32137;48.728;9.142;2024-02-21T15:27:18;11.50;1.00
46438;DHT22;32137;48.728;9.142;2024-02-21T15:29:43;11.50;1.00
46438;DHT22;32137;48.728;9.142;2024-02-21T15:32:09;11.50;1.00
46438;DHT22;32137;48.728;9.142;2024-02-21T15:34:36;11.50;1.00
46438;DHT22;32137;48.728;9.142;2024-02-21T15:37:01;11.50;1.00
46438;DHT22;32137;48.728;9.142;2024-02-21T15:39:27;11.50;1.00
46438;DHT22;32137;48.728;9.142;2024-02-21T15:41:53;11.50;1.00